createdAt,value
2023-04-10T00:02:26.296Z,101951.59
2023-04-10T00:04:53.333Z,101944.22
2023-04-10T00:07:20.551Z,101938.25
2023-04-10T00:09:48.054Z,101941.13
2023-04-10T00:12:15.606Z,101940.78
2023-04-10T00:14:42.497Z,101939.72
2023-04-10T00:17:09.230Z,101939.22
2023-04-10T00:19:36.368Z,101937.25
2023-04-10T00:22:03.064Z,101936.66
2023-04-10T00:24:30.379Z,101929.19
2023-04-10T00:26:57.570Z,101938.13
2023-04-10T00:29:24.784Z,101938.13
2023-04-10T00:31:51.444Z,101935.59
2023-04-10T00:34:18.468Z,101936.84
2023-04-10T00:36:46.841Z,101929.44
2023-04-10T00:39:14.351Z,101926.66
2023-04-10T00:41:41.075Z,101924.00
2023-04-10T00:44:08.497Z,101925.72
2023-04-10T00:46:37.474Z,101930.13
2023-04-10T00:49:04.869Z,101922.13
2023-04-10T00:51:31.896Z,101929.56
2023-04-10T00:54:00.321Z,101923.84
2023-04-10T00:56:26.973Z,101912.50
2023-04-10T00:58:53.702Z,101906.16
2023-04-10T01:01:21.035Z,101907.16
2023-04-10T01:03:47.816Z,101895.66
2023-04-10T01:06:42.326Z,101902.53
2023-04-10T01:09:18.135Z,101900.81
2023-04-10T01:12:11.354Z,101895.09
2023-04-10T01:14:55.987Z,101892.63
2023-04-10T01:17:42.218Z,101896.94
2023-04-10T01:20:32.971Z,101894.41
2023-04-10T01:23:20.737Z,101892.63
2023-04-10T01:26:07.652Z,101890.88
2023-04-10T01:28:57.078Z,101896.28
2023-04-10T01:31:53.625Z,101899.34
2023-04-10T01:34:26.916Z,101901.91
2023-04-10T01:37:00.721Z,101902.28
2023-04-10T01:39:28.557Z,101902.16
2023-04-10T01:41:56.677Z,101895.88
2023-04-10T01:44:30.031Z,101896.56
2023-04-10T01:46:58.040Z,101898.03
2023-04-10T01:49:26.855Z,101899.06
2023-04-10T01:51:58.215Z,101891.50
2023-04-10T01:54:28.386Z,101899.78
2023-04-10T01:56:56.749Z,101903.59
2023-04-10T01:59:23.790Z,101906.34
2023-04-10T02:01:58.829Z,101900.81
2023-04-10T02:04:26.802Z,101901.88
2023-04-10T02:07:04.834Z,101911.41
2023-04-10T02:09:45.310Z,101910.84
2023-04-10T02:12:47.075Z,101910.06
2023-04-10T02:15:14.459Z,101910.91
2023-04-10T02:17:42.839Z,101917.81
2023-04-10T02:20:10.817Z,101905.75
2023-04-10T02:22:37.770Z,101906.84
2023-04-10T02:25:04.953Z,101912.50
2023-04-10T02:27:33.266Z,101916.53
2023-04-10T02:30:00.472Z,101919.63
2023-04-10T02:32:27.507Z,101919.41
2023-04-10T02:34:54.250Z,101911.69
2023-04-10T02:37:21.266Z,101907.13
2023-04-10T02:39:48.497Z,101907.97
2023-04-10T02:42:15.284Z,101906.63
2023-04-10T02:44:41.854Z,101901.13
2023-04-10T02:47:08.546Z,101910.06
2023-04-10T02:49:35.373Z,101914.19
2023-04-10T02:52:02.399Z,101915.13
2023-04-10T02:54:29.179Z,101925.25
2023-04-10T02:56:57.517Z,101918.28
2023-04-10T02:59:24.361Z,101919.91
2023-04-10T03:01:52.447Z,101913.09
2023-04-10T03:04:19.706Z,101920.94
2023-04-10T03:06:46.814Z,101915.81
2023-04-10T03:09:13.712Z,101912.91
2023-04-10T03:11:40.624Z,101917.75
2023-04-10T03:14:09.773Z,101917.47
2023-04-10T03:16:36.738Z,101913.16
2023-04-10T03:19:03.608Z,101912.75
2023-04-10T03:21:30.252Z,101915.69
2023-04-10T03:23:56.984Z,101912.63
2023-04-10T03:26:24.136Z,101907.91
2023-04-10T03:28:50.994Z,101913.50
2023-04-10T03:31:18.001Z,101906.31
2023-04-10T03:33:44.849Z,101911.03
2023-04-10T03:36:11.712Z,101911.50
2023-04-10T03:38:38.446Z,101911.97
2023-04-10T03:41:05.507Z,101917.06
2023-04-10T03:43:32.179Z,101911.38
2023-04-10T03:45:58.880Z,101907.16
2023-04-10T03:48:28.285Z,101913.28
2023-04-10T03:50:56.521Z,101908.16
2023-04-10T03:53:23.670Z,101906.91
2023-04-10T03:55:52.410Z,101907.06
2023-04-10T03:58:19.310Z,101910.56
2023-04-10T04:00:46.744Z,101909.09
2023-04-10T04:03:13.839Z,101910.66
2023-04-10T04:05:40.815Z,101909.44
2023-04-10T04:08:07.501Z,101918.97
2023-04-10T04:10:34.130Z,101907.91
2023-04-10T04:13:01.573Z,101902.06
2023-04-10T04:15:28.295Z,101899.84
2023-04-10T04:17:55.065Z,101902.13
2023-04-10T04:20:21.764Z,101898.28
2023-04-10T04:22:48.463Z,101907.19
2023-04-10T04:25:15.641Z,101902.63
2023-04-10T04:27:42.384Z,101903.31
2023-04-10T04:30:09.440Z,101901.13
2023-04-10T04:32:36.156Z,101901.25
2023-04-10T04:35:02.989Z,101899.00
2023-04-10T04:37:29.722Z,101901.25
2023-04-10T04:39:56.400Z,101902.59
2023-04-10T04:42:23.068Z,101906.91
2023-04-10T04:44:49.754Z,101905.53
2023-04-10T04:47:17.192Z,101904.38
2023-04-10T04:49:43.936Z,101902.94
2023-04-10T04:52:10.927Z,101910.38
2023-04-10T04:54:37.577Z,101899.78
2023-04-10T04:57:04.243Z,101905.78
2023-04-10T04:59:30.908Z,101899.13
2023-04-10T05:01:58.140Z,101902.81
2023-04-10T05:04:25.141Z,101903.47
2023-04-10T05:06:52.198Z,101909.91
2023-04-10T05:09:19.257Z,101906.84
2023-04-10T05:11:46.005Z,101900.13
2023-04-10T05:14:12.658Z,101897.38
2023-04-10T05:16:39.329Z,101912.09
2023-04-10T05:19:06.349Z,101909.66
2023-04-10T05:21:33.283Z,101912.53
2023-04-10T05:24:00.344Z,101917.06
2023-04-10T05:26:27.372Z,101913.22
2023-04-10T05:28:54.159Z,101918.75
2023-04-10T05:31:21.278Z,101919.03
2023-04-10T05:33:49.279Z,101925.56
2023-04-10T05:36:18.186Z,101921.56
2023-04-10T05:38:44.893Z,101928.94
2023-04-10T05:41:11.552Z,101928.72
2023-04-10T05:43:38.226Z,101914.66
2023-04-10T05:46:05.060Z,101920.03
2023-04-10T05:48:31.702Z,101914.13
2023-04-10T05:50:58.418Z,101915.41
2023-04-10T05:53:31.288Z,101908.06
2023-04-10T05:55:59.529Z,101911.00
2023-04-10T05:58:27.025Z,101909.69
2023-04-10T06:00:53.629Z,101912.16
2023-04-10T06:03:20.697Z,101905.44
2023-04-10T06:05:47.523Z,101906.53
2023-04-10T06:08:14.290Z,101904.44
2023-04-10T06:10:41.096Z,101897.09
2023-04-10T06:13:10.592Z,101904.44
2023-04-10T06:15:38.236Z,101895.03
2023-04-10T06:18:05.349Z,101898.06
2023-04-10T06:20:32.169Z,101904.09
2023-04-10T06:22:59.460Z,101888.41
2023-04-10T06:25:26.603Z,101897.41
2023-04-10T06:27:53.489Z,101890.50
2023-04-10T06:30:20.932Z,101881.00
2023-04-10T06:32:47.871Z,101888.06
2023-04-10T06:35:14.690Z,101876.94
2023-04-10T06:37:42.564Z,101874.22
2023-04-10T06:40:13.788Z,101866.53
2023-04-10T06:42:41.698Z,101869.97
2023-04-10T06:45:09.093Z,101860.25
2023-04-10T06:47:36.058Z,101858.72
2023-04-10T06:50:03.532Z,101849.22
2023-04-10T06:52:30.907Z,101855.56
2023-04-10T06:54:57.653Z,101848.81
2023-04-10T06:57:24.497Z,101850.56
2023-04-10T06:59:51.430Z,101849.75
2023-04-10T07:02:18.199Z,101855.84
2023-04-10T07:04:44.987Z,101853.19
2023-04-10T07:07:13.361Z,101849.69
2023-04-10T07:09:40.359Z,101844.34
2023-04-10T07:12:07.684Z,101858.50
2023-04-10T07:14:37.503Z,101855.81
2023-04-10T07:17:04.378Z,101858.38
2023-04-10T07:19:31.450Z,101859.22
2023-04-10T07:21:58.152Z,101856.50
2023-04-10T07:24:25.062Z,101851.09
2023-04-10T07:26:52.585Z,101852.69
2023-04-10T07:29:20.581Z,101850.13
2023-04-10T07:31:47.277Z,101845.78
2023-04-10T07:34:14.058Z,101842.16
2023-04-10T07:36:40.865Z,101845.53
2023-04-10T07:39:07.655Z,101841.28
2023-04-10T07:41:35.299Z,101833.38
2023-04-10T07:44:02.371Z,101829.06
2023-04-10T07:46:29.165Z,101832.63
2023-04-10T07:48:56.176Z,101835.31
2023-04-10T07:51:23.102Z,101826.56
2023-04-10T07:53:49.803Z,101822.16
2023-04-10T07:56:17.901Z,101824.88
2023-04-10T07:58:45.041Z,101832.81
2023-04-10T08:01:11.895Z,101830.22
2023-04-10T08:03:45.067Z,101824.81
2023-04-10T08:06:12.215Z,101821.31
2023-04-10T08:08:40.827Z,101814.22
2023-04-10T08:11:28.705Z,101824.91
2023-04-10T08:13:58.130Z,101825.03
2023-04-10T08:16:26.109Z,101814.41
2023-04-10T08:18:53.857Z,101820.59
2023-04-10T08:21:22.374Z,101812.63
2023-04-10T08:23:53.805Z,101817.00
2023-04-10T08:26:21.357Z,101817.88
2023-04-10T08:28:50.180Z,101813.47
2023-04-10T08:31:17.856Z,101800.22
2023-04-10T08:33:44.686Z,101805.44
2023-04-10T08:36:12.828Z,101805.47
2023-04-10T08:38:39.828Z,101805.31
2023-04-10T08:41:06.627Z,101799.19
2023-04-10T08:43:34.662Z,101795.56
2023-04-10T08:46:01.839Z,101797.19
2023-04-10T08:48:52.972Z,101789.19
2023-04-10T08:51:26.224Z,101790.81
2023-04-10T08:53:58.758Z,101782.84
2023-04-10T08:56:26.064Z,101778.25
2023-04-10T08:58:53.294Z,101776.25
2023-04-10T09:01:21.400Z,101770.75
2023-04-10T09:03:48.517Z,101762.44
2023-04-10T09:06:15.393Z,101767.47
2023-04-10T09:08:42.158Z,101762.72
2023-04-10T09:11:09.083Z,101758.94
2023-04-10T09:13:39.750Z,101753.31
2023-04-10T09:16:07.141Z,101750.22
2023-04-10T09:18:42.619Z,101733.78
2023-04-10T09:21:11.100Z,101737.75
2023-04-10T09:23:37.752Z,101725.09
2023-04-10T09:26:25.949Z,101736.84
2023-04-10T09:29:03.496Z,101733.16
2023-04-10T09:31:32.278Z,101735.00
2023-04-10T09:34:13.016Z,101726.06
2023-04-10T09:36:43.726Z,101707.09
2023-04-10T09:39:11.911Z,101703.75
2023-04-10T09:41:55.021Z,101713.53
2023-04-10T09:44:33.122Z,101702.75
2023-04-10T09:47:15.468Z,101702.66
2023-04-10T09:49:56.000Z,101699.69
2023-04-10T09:52:31.133Z,101690.88
2023-04-10T09:55:00.370Z,101695.25
2023-04-10T09:57:32.808Z,101693.19
2023-04-10T10:00:05.539Z,101681.56
2023-04-10T10:02:37.479Z,101685.47
2023-04-10T10:05:06.182Z,101680.09
2023-04-10T10:07:33.322Z,101672.88
2023-04-10T10:10:01.067Z,101666.50
2023-04-10T10:12:50.640Z,101666.69
2023-04-10T10:15:20.978Z,101669.06
2023-04-10T10:17:54.458Z,101658.81
2023-04-10T10:20:24.429Z,101650.50
2023-04-10T10:22:51.918Z,101650.38
2023-04-10T10:25:20.154Z,101655.53
2023-04-10T10:27:49.847Z,101657.66
2023-04-10T10:30:28.797Z,101639.88
2023-04-10T10:32:56.890Z,101648.47
2023-04-10T10:35:29.580Z,101637.50
2023-04-10T10:37:59.782Z,101640.22
2023-04-10T10:40:33.092Z,101624.69
2023-04-10T10:43:33.376Z,101625.97
2023-04-10T10:46:05.081Z,101632.09
2023-04-10T10:48:32.101Z,101623.25
2023-04-10T10:51:07.669Z,101620.34
2023-04-10T10:53:37.063Z,101613.41
2023-04-10T10:56:26.949Z,101616.44
2023-04-10T10:58:56.498Z,101609.69
2023-04-10T11:01:23.849Z,101600.31
2023-04-10T11:03:51.181Z,101599.53
2023-04-10T11:06:21.746Z,101596.59
2023-04-10T11:08:55.367Z,101596.72
2023-04-10T11:11:27.896Z,101590.94
2023-04-10T11:13:57.580Z,101586.16
2023-04-10T11:16:42.018Z,101593.19
2023-04-10T11:19:16.286Z,101577.22
2023-04-10T11:22:09.155Z,101573.91
2023-04-10T11:24:57.659Z,101573.22
2023-04-10T11:27:52.850Z,101571.88
2023-04-10T11:30:27.105Z,101567.59
2023-04-10T11:32:54.895Z,101557.53
2023-04-10T11:35:22.357Z,101557.72
2023-04-10T11:37:53.028Z,101552.16
2023-04-10T11:40:19.809Z,101543.84
2023-04-10T11:42:48.150Z,101538.84
2023-04-10T11:45:23.862Z,101536.75
2023-04-10T11:47:54.704Z,101529.69
2023-04-10T11:50:21.684Z,101525.41
2023-04-10T11:52:51.826Z,101526.06
2023-04-10T11:55:19.190Z,101519.44
2023-04-10T11:57:46.340Z,101518.53
2023-04-10T12:00:24.331Z,101517.16
2023-04-10T12:02:55.653Z,101515.91
2023-04-10T12:05:24.447Z,101507.13
2023-04-10T12:07:51.721Z,101511.53
2023-04-10T12:10:18.456Z,101508.13
2023-04-10T12:12:45.160Z,101505.50
2023-04-10T12:15:28.734Z,101502.84
2023-04-10T12:17:55.778Z,101489.97
2023-04-10T12:20:26.562Z,101496.56
2023-04-10T12:22:56.314Z,101486.00
2023-04-10T12:25:23.057Z,101486.44
2023-04-10T12:27:52.640Z,101475.75
2023-04-10T12:30:19.427Z,101479.09
2023-04-10T12:32:52.430Z,101470.06
2023-04-10T12:35:19.263Z,101461.25
2023-04-10T12:37:52.792Z,101461.72
2023-04-10T12:40:20.752Z,101460.28
2023-04-10T12:42:47.625Z,101452.75
2023-04-10T12:45:15.547Z,101446.50
2023-04-10T12:47:47.972Z,101449.69
2023-04-10T12:50:20.774Z,101444.06
2023-04-10T12:53:05.123Z,101444.13
2023-04-10T12:55:32.379Z,101425.84
2023-04-10T12:58:16.450Z,101419.47
2023-04-10T13:00:43.185Z,101418.06
2023-04-10T13:03:10.001Z,101414.41
2023-04-10T13:05:36.907Z,101413.03
2023-04-10T13:08:03.785Z,101397.94
2023-04-10T13:10:30.774Z,101394.03
2023-04-10T13:12:57.622Z,101386.28
2023-04-10T13:15:24.547Z,101379.09
2023-04-10T13:17:51.346Z,101377.03
2023-04-10T13:20:18.235Z,101367.03
2023-04-10T13:22:45.545Z,101371.31
2023-04-10T13:25:12.457Z,101366.19
2023-04-10T13:27:39.297Z,101363.56
2023-04-10T13:30:06.622Z,101356.44
2023-04-10T13:32:33.369Z,101358.22
2023-04-10T13:35:00.145Z,101356.94
2023-04-10T13:37:26.942Z,101350.88
2023-04-10T13:39:53.728Z,101349.28
2023-04-10T13:42:20.755Z,101348.75
2023-04-10T13:44:47.549Z,101332.59
2023-04-10T13:47:14.520Z,101329.13
2023-04-10T13:49:41.274Z,101321.81
2023-04-10T13:52:09.123Z,101321.66
2023-04-10T13:54:35.859Z,101323.59
2023-04-10T13:57:03.019Z,101313.59
2023-04-10T13:59:29.949Z,101308.38
2023-04-10T14:01:56.721Z,101303.69
2023-04-10T14:04:23.470Z,101310.13
2023-04-10T14:06:52.029Z,101308.03
2023-04-10T14:09:19.058Z,101298.34
2023-04-10T14:11:45.911Z,101293.28
2023-04-10T14:14:14.073Z,101299.72
2023-04-10T14:16:40.952Z,101290.84
2023-04-10T14:19:07.738Z,101293.84
2023-04-10T14:21:34.398Z,101301.66
2023-04-10T14:24:01.402Z,101289.41
2023-04-10T14:26:28.218Z,101287.34
2023-04-10T14:28:55.405Z,101284.03
2023-04-10T14:31:22.333Z,101284.84
2023-04-10T14:33:49.454Z,101277.56
2023-04-10T14:36:16.334Z,101262.88
2023-04-10T14:38:43.168Z,101264.22
2023-04-10T14:41:10.173Z,101262.06
2023-04-10T14:43:37.730Z,101265.22
2023-04-10T14:46:04.719Z,101264.81
2023-04-10T14:48:31.540Z,101247.94
2023-04-10T14:50:59.163Z,101242.72
2023-04-10T14:53:25.973Z,101245.69
2023-04-10T14:55:52.679Z,101237.63
2023-04-10T14:58:19.728Z,101225.56
2023-04-10T15:00:47.105Z,101227.84
2023-04-10T15:03:14.091Z,101224.69
2023-04-10T15:05:40.996Z,101222.91
2023-04-10T15:08:07.994Z,101218.66
2023-04-10T15:10:34.739Z,101222.53
2023-04-10T15:13:01.545Z,101211.53
2023-04-10T15:15:31.160Z,101211.13
2023-04-10T15:18:04.020Z,101213.13
2023-04-10T15:20:31.071Z,101210.31
2023-04-10T15:28:49.836Z,101194.91
2023-04-10T15:31:16.982Z,101193.19
2023-04-10T15:33:43.867Z,101188.81
2023-04-10T15:36:13.296Z,101184.91
2023-04-10T15:38:40.112Z,101175.56
2023-04-10T15:41:13.495Z,101170.59
2023-04-10T15:43:40.408Z,101168.16
2023-04-10T15:46:07.186Z,101173.13
2023-04-10T15:48:34.118Z,101168.66
2023-04-10T15:51:05.496Z,101172.09
2023-04-10T15:53:35.112Z,101172.56
2023-04-10T15:56:04.772Z,101160.56
2023-04-10T15:58:34.087Z,101161.25
2023-04-10T16:01:01.155Z,101148.25
2023-04-10T16:03:30.235Z,101140.63
2023-04-10T16:05:58.445Z,101129.75
2023-04-10T16:08:26.242Z,101124.38
2023-04-10T16:10:55.166Z,101127.53
2023-04-10T16:13:21.921Z,101125.09
2023-04-10T16:15:49.192Z,101129.38
2023-04-10T16:18:15.882Z,101119.66
2023-04-10T16:20:42.512Z,101120.59
2023-04-10T16:23:09.139Z,101116.25
2023-04-10T16:25:35.931Z,101111.13
2023-04-10T16:28:02.797Z,101108.94
2023-04-10T16:30:29.454Z,101102.81
2023-04-10T16:32:56.176Z,101111.81
2023-04-10T16:35:27.049Z,101098.06
2023-04-10T16:37:55.019Z,101094.88
2023-04-10T16:40:21.997Z,101088.69
2023-04-10T16:42:48.652Z,101095.84
2023-04-10T16:45:15.480Z,101092.56
2023-04-10T16:47:44.595Z,101085.75
2023-04-10T16:50:11.525Z,101087.88
2023-04-10T16:52:38.282Z,101077.41
2023-04-10T16:55:05.310Z,101073.38
2023-04-10T16:57:32.166Z,101075.75
2023-04-10T16:59:59.237Z,101068.69
2023-04-10T17:02:26.560Z,101068.84
2023-04-10T17:04:59.223Z,101051.47
2023-04-10T17:07:25.935Z,101049.84
2023-04-10T17:09:52.860Z,101048.81
2023-04-10T17:12:19.589Z,101046.00
2023-04-10T17:14:46.251Z,101040.75
2023-04-10T17:17:13.087Z,101042.84
2023-04-10T17:19:39.828Z,101033.34
2023-04-10T17:22:15.434Z,101024.66
2023-04-10T17:24:43.513Z,101022.06
2023-04-10T17:27:10.302Z,101021.22
2023-04-10T17:29:40.031Z,101015.63
2023-04-10T17:32:08.709Z,101012.38
2023-04-10T17:34:35.608Z,101009.91
2023-04-10T17:37:02.491Z,101011.75
2023-04-10T17:39:29.192Z,101002.41
2023-04-10T17:41:56.929Z,101001.78
2023-04-10T17:44:23.747Z,101001.72
2023-04-10T17:46:50.577Z,100995.81
2023-04-10T17:49:20.922Z,100991.69
2023-04-10T17:51:48.020Z,100983.03
2023-04-10T17:54:14.769Z,100978.84
2023-04-10T17:56:42.490Z,100974.69
2023-04-10T17:59:09.230Z,100973.13
2023-04-10T18:01:36.038Z,100970.69
2023-04-10T18:04:03.377Z,100969.16
2023-04-10T18:06:30.299Z,100961.34
2023-04-10T18:08:57.372Z,100962.28
2023-04-10T18:11:24.257Z,100962.34
2023-04-10T18:13:51.120Z,100960.72
2023-04-10T18:16:17.983Z,100959.06
2023-04-10T18:18:44.744Z,100960.19
2023-04-10T18:21:12.265Z,100960.56
2023-04-10T18:23:40.081Z,100949.91
2023-04-10T18:26:06.957Z,100954.59
2023-04-10T18:28:33.587Z,100961.22
2023-04-10T18:31:00.865Z,100951.28
2023-04-10T18:33:27.684Z,100951.28
2023-04-10T18:35:59.008Z,100956.06
2023-04-10T18:38:26.397Z,100946.50
2023-04-10T18:41:02.136Z,100952.94
2023-04-10T18:43:28.896Z,100948.38
2023-04-10T18:45:55.868Z,100943.09
2023-04-10T18:48:22.771Z,100946.03
2023-04-10T18:50:56.090Z,100940.91
2023-04-10T18:53:23.165Z,100935.88
2023-04-10T18:55:51.553Z,100927.28
2023-04-10T18:58:19.684Z,100924.53
2023-04-10T19:00:46.516Z,100920.44
2023-04-10T19:03:14.278Z,100918.78
2023-04-10T19:05:44.509Z,100906.44
2023-04-10T19:08:14.680Z,100911.03
2023-04-10T19:10:42.470Z,100902.28
2023-04-10T19:13:09.807Z,100904.84
2023-04-10T19:15:41.486Z,100889.13
2023-04-10T19:18:08.917Z,100883.03
2023-04-10T19:20:49.756Z,100879.44
2023-04-10T19:23:18.712Z,100872.19
2023-04-10T19:25:45.485Z,100869.72
2023-04-10T19:28:12.257Z,100860.97
2023-04-10T19:30:38.960Z,100856.75
2023-04-10T19:33:05.726Z,100853.06
2023-04-10T19:35:34.991Z,100851.34
2023-04-10T19:38:01.686Z,100841.34
2023-04-10T19:40:31.697Z,100842.09
2023-04-10T19:43:00.372Z,100840.31
2023-04-10T19:45:30.084Z,100833.97
2023-04-10T19:47:56.950Z,100828.59
2023-04-10T19:50:23.884Z,100824.91
2023-04-10T19:52:51.482Z,100823.22
2023-04-10T19:55:19.142Z,100827.59
2023-04-10T19:57:46.099Z,100816.84
2023-04-10T20:00:13.305Z,100817.88
2023-04-10T20:02:40.411Z,100817.88
2023-04-10T20:05:07.634Z,100825.25
2023-04-10T20:07:34.287Z,100811.00
2023-04-10T20:10:04.285Z,100814.66
2023-04-10T20:12:33.213Z,100804.09
2023-04-10T20:15:04.513Z,100801.47
2023-04-10T20:17:31.512Z,100796.00
2023-04-10T20:19:58.328Z,100788.09
2023-04-10T20:22:25.455Z,100782.72
2023-04-10T20:24:58.260Z,100772.88
2023-04-10T20:27:26.114Z,100776.50
2023-04-10T20:29:52.990Z,100770.22
2023-04-10T20:32:19.784Z,100766.63
2023-04-10T20:34:46.570Z,100765.13
2023-04-10T20:37:17.366Z,100759.72
2023-04-10T20:39:44.163Z,100762.38
2023-04-10T20:42:11.017Z,100762.56
2023-04-10T20:44:38.563Z,100746.84
2023-04-10T20:47:06.331Z,100748.41
2023-04-10T20:49:33.385Z,100746.88
2023-04-10T20:52:00.102Z,100732.53
2023-04-10T20:54:27.267Z,100729.94
2023-04-10T20:56:54.071Z,100730.09
2023-04-10T20:59:22.933Z,100726.41
2023-04-10T21:01:49.758Z,100727.50
2023-04-10T21:04:22.477Z,100732.72
2023-04-10T21:06:51.453Z,100718.59
2023-04-10T21:09:18.129Z,100729.06
2023-04-10T21:11:46.645Z,100725.69
2023-04-10T21:14:13.508Z,100734.78
2023-04-10T21:16:42.486Z,100732.75
2023-04-10T21:19:11.452Z,100731.00
2023-04-10T21:21:42.630Z,100729.28
2023-04-10T21:24:11.393Z,100721.41
2023-04-10T21:26:39.168Z,100718.88
2023-04-10T21:29:05.839Z,100715.09
2023-04-10T21:31:32.482Z,100712.50
2023-04-10T21:33:59.162Z,100705.47
2023-04-10T21:36:26.589Z,100714.38
2023-04-10T21:38:53.534Z,100703.13
2023-04-10T21:41:23.196Z,100705.03
2023-04-10T21:43:49.839Z,100699.69
2023-04-10T21:46:21.394Z,100687.47
2023-04-10T21:48:50.204Z,100688.50
2023-04-10T21:51:17.092Z,100685.78
2023-04-10T21:53:43.744Z,100684.84
2023-04-10T21:56:10.733Z,100675.16
2023-04-10T21:58:40.423Z,100662.78
2023-04-10T22:01:08.114Z,100668.91
2023-04-10T22:03:35.694Z,100660.09
2023-04-10T22:06:02.599Z,100653.16
2023-04-10T22:08:29.251Z,100653.81
2023-04-10T22:10:58.246Z,100646.63
2023-04-10T22:13:30.963Z,100647.53
2023-04-10T22:15:59.568Z,100640.44
2023-04-10T22:18:29.766Z,100635.34
2023-04-10T22:20:57.729Z,100628.28
2023-04-10T22:23:24.437Z,100638.00
2023-04-10T22:25:51.082Z,100633.53
2023-04-10T22:28:17.692Z,100620.38
2023-04-10T22:30:44.460Z,100612.44
2023-04-10T22:33:12.059Z,100618.59
2023-04-10T22:35:41.081Z,100610.00
2023-04-10T22:38:08.335Z,100602.03
2023-04-10T22:40:35.758Z,100601.88
2023-04-10T22:43:02.481Z,100591.44
2023-04-10T22:45:29.651Z,100591.31
2023-04-10T22:47:56.352Z,100585.22
2023-04-10T22:50:26.128Z,100577.31
2023-04-10T22:52:56.417Z,100574.72
2023-04-10T22:55:23.002Z,100576.34
2023-04-10T22:57:49.660Z,100573.03
2023-04-10T23:00:16.791Z,100565.25
2023-04-10T23:02:46.562Z,100559.63
2023-04-10T23:05:18.947Z,100550.19
2023-04-10T23:07:50.505Z,100539.56
2023-04-10T23:10:17.335Z,100542.13
2023-04-10T23:12:45.827Z,100538.53
2023-04-10T23:15:12.691Z,100537.75
2023-04-10T23:17:39.377Z,100532.19
2023-04-10T23:20:06.635Z,100532.25
2023-04-10T23:22:33.239Z,100530.72
2023-04-10T23:25:01.390Z,100511.22
2023-04-10T23:27:29.220Z,100508.72
2023-04-10T23:29:59.780Z,100501.00
2023-04-10T23:32:28.758Z,100502.50
2023-04-10T23:34:58.885Z,100490.34
2023-04-10T23:37:26.459Z,100485.75
2023-04-10T23:39:53.265Z,100481.38
2023-04-10T23:42:22.930Z,100466.34
2023-04-10T23:44:49.556Z,100463.78
2023-04-10T23:47:18.481Z,100462.09
2023-04-10T23:49:45.199Z,100455.97
2023-04-10T23:52:12.167Z,100450.59
2023-04-10T23:54:38.836Z,100438.31
2023-04-10T23:57:05.982Z,100442.06
2023-04-10T23:59:32.611Z,100435.91
